Portada
METAR-TAF:

METAR-TAF

Aeroports :

Florești, Moldàvia

latitud: 47-51-45N, longitud: 028-12-45E, altitud: 101 m

Observació

L'informe es va fer fa 10 hores i 42 minuts, a les 15:00 UTC
Vent 18 kt del Oest/Nord-Oest
Temperatura 21°C
Humitat 78%
Pressió 1009 hPa
Visibilitat 10 km o més
Núvols disperses a una alçada de 3200 ft, Cumulonimbus.

METAR: LUBM 151500Z 30018KT 9999 SCT032CB 21/17 Q1009 R25/190055

Hora: 04:42 (01:42 UTC)

Pronòstic

L'informe es va fer fa 11 hores i 32 minuts, a les 14:10 UTC
Pronòstic vàlid del 15 a les 15 UTC al 15 a les 24 UTC
Vent 10 kt del Nord
Visibilitat 10 km o més
Núvols disperses a una alçada de 3500 ft
Temporalment
l' 15 a les 15 UTC al 15 a les 17 UTC
Vent 20 kt amb direcció variable amb ràfegues de 30 kt
Visibilitat: 1500 m
Cel ennuvolat a una alçada de 800 ft
Cel ennuvolat a una alçada de 2000 ft, Cumulonimbus.
tempesta, pluja

TAF: LUBM 151410Z 1515/1524 36010KT 9999 SCT035 TEMPO 1515/1517 VRB20G30KT 1500 TSRA BKN008 BKN020CB

Observacions i pronòstics meteorològics de més de 4000 aeroports (METAR i TAF).

Les estacions disponibles són els punts grocs i vermells al mapa.

Posi el ratolí al punt desitjat per veure el nom de l'estació.

Feu clic per veure les observacions i els pronòstics meteorològics.

Per canviar el mapa: feu clic els botons verds amb una creu de color negre per apropar; al botó verd amb un guió per allunyar la imatge; o en les fletxes verdes per a mapes adjacents.


METAR-TAF: